Wetterdaten: Woche 04.10.04 - 10.10.04 (KW41)
Datum Zeit Temperatur Luftfeuchte Luftdruck Regenmenge Wind Richtung Taupunkt Windchill
04.10.2004 00:00 9.8 C 99 % 1022.9 hPa 0.0 l/m 0.8 km/h (0 Bft) O-SO 9.7 C 9.8 C
04.10.2004 01:00 9.4 C 100 % 1022.9 hPa 0.0 l/m 2.1 km/h (1 Bft) O-SO 9.4 C 9.2 C
04.10.2004 02:00 8.9 C 100 % 1022.9 hPa 0.0 l/m 2.0 km/h (1 Bft) O-SO 8.9 C 8.8 C
04.10.2004 03:00 8.5 C 100 % 1022.4 hPa 0.0 l/m 1.0 km/h (0 Bft) O-SO 8.5 C 8.5 C
04.10.2004 04:00 8.4 C 100 % 1022.0 hPa 0.0 l/m 0.2 km/h (0 Bft) O-SO 8.4 C 8.4 C
04.10.2004 05:00 8.2 C 100 % 1022.1 hPa 0.0 l/m 1.8 km/h (1 Bft) O-SO 8.2 C 8.0 C
04.10.2004 06:00 8.5 C 100 % 1021.2 hPa 0.0 l/m 0.0 km/h (0 Bft) N 8.5 C 8.5 C
04.10.2004 07:00 9.0 C 100 % 1021.1 hPa 0.0 l/m 0.2 km/h (0 Bft) O-SO 9.0 C 9.0 C
04.10.2004 08:00 9.5 C 100 % 1021.7 hPa 0.0 l/m 0.1 km/h (0 Bft) N 9.5 C 9.5 C
04.10.2004 09:00 10.1 C 100 % 1021.8 hPa 0.0 l/m 0.0 km/h (0 Bft) N 10.1 C 10.1 C
04.10.2004 10:00 11.6 C 98 % 1021.6 hPa 0.0 l/m 0.1 km/h (0 Bft) N 11.3 C 11.6 C
04.10.2004 11:00 14.0 C 84 % 1020.9 hPa 0.0 l/m 0.0 km/h (0 Bft) O-SO 11.2 C 14.0 C
04.10.2004 12:00 17.5 C 70 % 1019.8 hPa 0.0 l/m 2.7 km/h (1 Bft) O-SO 11.9 C 17.5 C
04.10.2004 13:00 19.3 C 60 % 1019.3 hPa 0.0 l/m 5.0 km/h (1 Bft) O-SO 11.4 C 19.3 C
04.10.2004 14:00 21.0 C 55 % 1018.3 hPa 0.0 l/m 7.0 km/h (2 Bft) O-SO 11.5 C 21.0 C
04.10.2004 15:00 22.6 C 52 % 1017.6 hPa 0.0 l/m 5.4 km/h (1 Bft) SO 12.1 C 22.6 C
04.10.2004 16:00 23.1 C 50 % 1017.0 hPa 0.0 l/m 3.7 km/h (1 Bft) S 12.0 C 23.1 C
04.10.2004 17:00 22.8 C 52 % 1017.0 hPa 0.0 l/m 5.9 km/h (2 Bft) O-SO 12.4 C 22.8 C
04.10.2004 18:00 20.3 C 63 % 1017.3 hPa 0.0 l/m 1.6 km/h (1 Bft) O-SO 12.9 C 20.3 C
04.10.2004 19:00 17.4 C 77 % 1017.7 hPa 0.0 l/m 4.4 km/h (1 Bft) O-SO 13.3 C 17.4 C
04.10.2004 20:00 15.3 C 86 % 1018.0 hPa 0.0 l/m 1.8 km/h (1 Bft) O-SO 13.0 C 15.3 C
04.10.2004 21:00 14.0 C 93 % 1019.1 hPa 0.0 l/m 1.0 km/h (0 Bft) O-SO 12.9 C 14.0 C
04.10.2004 22:00 13.1 C 95 % 1019.3 hPa 0.0 l/m 0.3 km/h (0 Bft) O-SO 12.3 C 13.1 C
04.10.2004 23:00 12.0 C 97 % 1019.5 hPa 0.0 l/m 0.2 km/h (0 Bft) O-SO 11.5 C 12.0 C
05.10.2004 00:00 11.3 C 99 % 1019.6 hPa 0.0 l/m 0.0 km/h (0 Bft) N 11.1 C 11.3 C
05.10.2004 01:00 10.7 C 99 % 1019.6 hPa 0.0 l/m 0.7 km/h (0 Bft) O-SO 10.6 C 10.7 C
05.10.2004 02:00 10.2 C 100 % 1019.7 hPa 0.0 l/m 0.7 km/h (0 Bft) O-SO 10.2 C 10.2 C
05.10.2004 03:00 9.6 C 100 % 1019.8 hPa 0.0 l/m 0.0 km/h (0 Bft) N 9.6 C 9.6 C
05.10.2004 04:00 10.3 C 100 % 1019.7 hPa 0.0 l/m 0.0 km/h (0 Bft) N 10.3 C 10.3 C
05.10.2004 05:00 10.5 C 100 % 1019.7 hPa 0.0 l/m 0.0 km/h (0 Bft) N 10.5 C 10.5 C
05.10.2004 06:00 10.4 C 100 % 1019.8 hPa 0.0 l/m 0.0 km/h (0 Bft) N 10.4 C 10.4 C
05.10.2004 07:00 10.0 C 100 % 1020.6 hPa 0.0 l/m 0.8 km/h (0 Bft) O-SO 10.0 C 10.0 C
05.10.2004 08:00 10.3 C 100 % 1020.7 hPa 0.0 l/m 0.0 km/h (0 Bft) N 10.3 C 10.3 C
05.10.2004 09:00 11.1 C 100 % 1020.6 hPa 0.0 l/m 0.0 km/h (0 Bft) N 11.1 C 11.1 C
05.10.2004 10:00 11.9 C 100 % 1020.5 hPa 0.0 l/m 0.0 km/h (0 Bft) N 11.9 C 11.9 C
05.10.2004 11:00 14.3 C 94 % 1019.1 hPa 0.0 l/m 0.4 km/h (0 Bft) O-NO 13.4 C 14.3 C
05.10.2004 12:00 18.3 C 74 % 1018.1 hPa 0.0 l/m 0.6 km/h (0 Bft) NO 13.5 C 18.3 C
05.10.2004 13:00 21.8 C 55 % 1016.8 hPa 0.0 l/m 4.0 km/h (1 Bft) O 12.3 C 21.8 C
05.10.2004 14:00 24.0 C 45 % 1015.7 hPa 0.0 l/m 1.8 km/h (1 Bft) O-SO 11.2 C 24.0 C
05.10.2004 15:00 24.9 C 42 % 1014.7 hPa 0.0 l/m 7.3 km/h (2 Bft) O-SO 10.9 C 24.9 C
05.10.2004 16:00 24.9 C 41 % 1014.7 hPa 0.0 l/m 3.0 km/h (1 Bft) O-SO 10.7 C 24.9 C
05.10.2004 17:00 23.9 C 42 % 1013.9 hPa 0.0 l/m 7.5 km/h (2 Bft) O-SO 10.3 C 23.9 C
05.10.2004 18:00 21.4 C 49 % 1014.1 hPa 0.0 l/m 5.5 km/h (1 Bft) O-SO 10.1 C 21.4 C
05.10.2004 19:00 19.0 C 57 % 1014.7 hPa 0.0 l/m 2.3 km/h (1 Bft) O 10.3 C 19.0 C
05.10.2004 20:00 16.8 C 71 % 1015.7 hPa 0.0 l/m 1.4 km/h (1 Bft) O-SO 11.5 C 16.8 C
05.10.2004 21:00 14.9 C 83 % 1016.3 hPa 0.0 l/m 0.1 km/h (0 Bft) N 12.1 C 14.9 C
05.10.2004 22:00 13.6 C 89 % 1017.2 hPa 0.0 l/m 0.4 km/h (0 Bft) O-SO 11.8 C 13.6 C
05.10.2004 23:00 13.0 C 93 % 1017.2 hPa 0.0 l/m 1.3 km/h (1 Bft) O-SO 11.8 C 13.0 C
06.10.2004 00:00 13.1 C 95 % 1017.2 hPa 0.0 l/m 0.1 km/h (0 Bft) O-SO 12.3 C 13.1 C
06.10.2004 01:00 13.5 C 95 % 1017.2 hPa 0.0 l/m 0.0 km/h (0 Bft) N 12.7 C 13.5 C
06.10.2004 02:00 13.1 C 96 % 1017.2 hPa 0.0 l/m 0.4 km/h (0 Bft) O-SO 12.5 C 13.1 C
06.10.2004 03:00 13.0 C 97 % 1017.2 hPa 0.0 l/m 0.0 km/h (0 Bft) O-SO 12.6 C 13.0 C
06.10.2004 04:00 13.3 C 98 % 1017.2 hPa 0.0 l/m 0.8 km/h (0 Bft) O-SO 13.0 C 13.3 C
06.10.2004 05:00 13.2 C 100 % 1017.3 hPa 0.3 l/m 0.3 km/h (0 Bft) O 13.2 C 13.2 C
06.10.2004 06:00 13.2 C 100 % 1017.2 hPa 0.0 l/m 0.0 km/h (0 Bft) N 13.2 C 13.2 C
06.10.2004 07:00 12.9 C 100 % 1017.4 hPa 0.0 l/m 0.3 km/h (0 Bft) O 12.9 C 12.9 C
06.10.2004 08:00 13.3 C 100 % 1018.2 hPa 0.0 l/m 0.2 km/h (0 Bft) O 13.3 C 13.3 C
06.10.2004 09:00 13.9 C 100 % 1018.7 hPa 0.0 l/m 0.1 km/h (0 Bft) N 13.9 C 13.9 C
06.10.2004 10:00 15.9 C 95 % 1018.9 hPa 0.0 l/m 6.2 km/h (2 Bft) O-SO 15.1 C 15.9 C
06.10.2004 11:00 18.0 C 78 % 1018.6 hPa 0.0 l/m 0.7 km/h (0 Bft) SO 14.1 C 18.0 C
06.10.2004 12:00 18.6 C 68 % 1018.6 hPa 0.0 l/m 3.5 km/h (1 Bft) W-NW 12.7 C 18.6 C
06.10.2004 13:00 17.7 C 71 % 1018.7 hPa 0.0 l/m 0.5 km/h (0 Bft) W 12.3 C 17.7 C
06.10.2004 14:00 19.2 C 59 % 1018.5 hPa 0.0 l/m 14.4 km/h (3 Bft) W-NW 11.0 C 19.2 C
06.10.2004 15:00 18.4 C 66 % 1018.6 hPa 0.0 l/m 5.2 km/h (1 Bft) W-NW 11.9 C 18.4 C
06.10.2004 16:00 17.3 C 77 % 1018.7 hPa 0.0 l/m 3.1 km/h (1 Bft) NW 13.3 C 17.3 C
06.10.2004 17:00 15.8 C 90 % 1018.9 hPa 0.9 l/m 0.0 km/h (0 Bft) N 14.1 C 15.8 C
06.10.2004 18:00 15.4 C 96 % 1019.0 hPa 0.6 l/m 0.0 km/h (0 Bft) N 14.8 C 15.4 C
06.10.2004 19:00 14.9 C 97 % 1019.1 hPa 0.3 l/m 0.0 km/h (0 Bft) N 14.5 C 14.9 C
06.10.2004 20:00 14.7 C 99 % 1019.3 hPa 0.0 l/m 0.0 km/h (0 Bft) N 14.6 C 14.7 C
06.10.2004 21:00 14.3 C 100 % 1020.2 hPa 0.0 l/m 0.0 km/h (0 Bft) N 14.3 C 14.3 C
06.10.2004 22:00 14.3 C 100 % 1020.2 hPa 0.3 l/m 0.0 km/h (0 Bft) N 14.3 C 14.3 C
06.10.2004 23:00 14.3 C 100 % 1020.2 hPa 0.3 l/m 3.8 km/h (1 Bft) W-NW 14.3 C 14.3 C
07.10.2004 00:00 13.4 C 100 % 1020.3 hPa 0.0 l/m 3.3 km/h (1 Bft) NW 13.4 C 13.4 C
07.10.2004 01:00 13.0 C 100 % 1020.7 hPa 0.0 l/m 4.6 km/h (1 Bft) W-NW 13.0 C 13.0 C
07.10.2004 02:00 12.3 C 98 % 1021.2 hPa 0.0 l/m 6.7 km/h (2 Bft) W-NW 12.1 C 12.3 C
07.10.2004 03:00 12.1 C 97 % 1020.6 hPa 0.0 l/m 1.0 km/h (0 Bft) W-NW 11.7 C 12.1 C
07.10.2004 04:00 12.0 C 96 % 1020.5 hPa 0.0 l/m 3.0 km/h (1 Bft) W-NW 11.3 C 12.0 C
07.10.2004 05:00 11.7 C 96 % 1020.5 hPa 0.0 l/m 0.1 km/h (0 Bft) N 11.0 C 11.7 C
07.10.2004 06:00 11.9 C 95 % 1020.5 hPa 0.0 l/m 0.0 km/h (0 Bft) N 11.1 C 11.9 C
07.10.2004 07:00 12.0 C 95 % 1020.5 hPa 0.0 l/m 0.0 km/h (0 Bft) N 11.3 C 12.0 C
07.10.2004 08:00 12.1 C 94 % 1020.5 hPa 0.0 l/m 0.0 km/h (0 Bft) N 11.3 C 12.1 C
07.10.2004 09:00 12.7 C 92 % 1020.5 hPa 0.0 l/m 0.6 km/h (0 Bft) W-NW 11.4 C 12.7 C
07.10.2004 10:00 12.9 C 93 % 1020.9 hPa 0.9 l/m 0.1 km/h (0 Bft) N 11.7 C 12.9 C
07.10.2004 11:00 13.6 C 92 % 1020.7 hPa 0.0 l/m 0.5 km/h (0 Bft) O 12.4 C 13.6 C
07.10.2004 12:00 14.2 C 88 % 1020.7 hPa 0.0 l/m 0.2 km/h (0 Bft) N 12.3 C 14.2 C
07.10.2004 13:00 15.2 C 83 % 1020.1 hPa 0.0 l/m 0.7 km/h (0 Bft) O 12.4 C 15.2 C
07.10.2004 14:00 15.6 C 80 % 1020.0 hPa 0.0 l/m 0.5 km/h (0 Bft) N 12.1 C 15.6 C
07.10.2004 15:00 16.5 C 78 % 1018.8 hPa 0.0 l/m 0.4 km/h (0 Bft) O-SO 12.6 C 16.5 C
07.10.2004 16:00 16.5 C 77 % 1018.5 hPa 0.0 l/m 0.1 km/h (0 Bft) N 12.5 C 16.5 C
07.10.2004 17:00 16.3 C 81 % 1017.8 hPa 0.0 l/m 0.0 km/h (0 Bft) N 13.0 C 16.3 C
07.10.2004 18:00 15.4 C 88 % 1018.0 hPa 0.0 l/m 0.8 km/h (0 Bft) SO 13.4 C 15.4 C
07.10.2004 19:00 14.9 C 95 % 1018.0 hPa 0.0 l/m 0.0 km/h (0 Bft) N 14.1 C 14.9 C
07.10.2004 20:00 14.5 C 98 % 1018.1 hPa 0.0 l/m 0.0 km/h (0 Bft) N 14.3 C 14.5 C
07.10.2004 21:00 14.1 C 99 % 1018.1 hPa 0.0 l/m 0.0 km/h (0 Bft) N 14.0 C 14.1 C
07.10.2004 22:00 14.0 C 100 % 1018.2 hPa 0.0 l/m 0.0 km/h (0 Bft) N 13.9 C 14.0 C
07.10.2004 23:00 13.9 C 100 % 1017.3 hPa 0.0 l/m 0.3 km/h (0 Bft) SO 13.9 C 13.9 C
08.10.2004 00:00 14.0 C 100 % 1017.1 hPa 0.0 l/m 0.0 km/h (0 Bft) N 14.0 C 14.0 C
08.10.2004 01:00 13.8 C 100 % 1017.1 hPa 0.0 l/m 0.0 km/h (0 Bft) N 13.8 C 13.8 C
08.10.2004 02:00 13.5 C 100 % 1017.2 hPa 0.0 l/m 1.0 km/h (0 Bft) O 13.5 C 13.5 C
08.10.2004 03:00 13.2 C 100 % 1016.8 hPa 0.0 l/m 1.3 km/h (1 Bft) W 13.2 C 13.2 C
08.10.2004 04:00 13.3 C 100 % 1016.2 hPa 0.0 l/m 0.0 km/h (0 Bft) N 13.3 C 13.3 C
08.10.2004 05:00 13.2 C 100 % 1016.2 hPa 0.0 l/m 0.2 km/h (0 Bft) SW 13.2 C 13.2 C
08.10.2004 06:00 13.2 C 100 % 1016.2 hPa 0.0 l/m 0.8 km/h (0 Bft) S 13.2 C 13.2 C
08.10.2004 07:00 13.3 C 100 % 1016.0 hPa 0.0 l/m 0.1 km/h (0 Bft) S-SO 13.3 C 13.3 C
08.10.2004 08:00 13.5 C 100 % 1016.1 hPa 0.0 l/m 0.5 km/h (0 Bft) S 13.5 C 13.5 C
08.10.2004 09:00 14.0 C 100 % 1016.1 hPa 0.0 l/m 1.4 km/h (1 Bft) W-SW 14.0 C 14.0 C
08.10.2004 10:00 14.9 C 98 % 1015.9 hPa 0.0 l/m 0.4 km/h (0 Bft) W 14.5 C 14.9 C
08.10.2004 11:00 16.3 C 87 % 1015.8 hPa 0.0 l/m 1.6 km/h (1 Bft) W 14.1 C 16.3 C
08.10.2004 12:00 18.0 C 79 % 1015.5 hPa 0.0 l/m 0.7 km/h (0 Bft) W 14.4 C 18.0 C
08.10.2004 13:00 19.0 C 74 % 1015.0 hPa 0.0 l/m 1.1 km/h (0 Bft) W-NW 14.2 C 19.0 C
08.10.2004 14:00 20.7 C 63 % 1014.2 hPa 0.0 l/m 1.8 km/h (1 Bft) W-NW 13.3 C 20.7 C
08.10.2004 15:00 21.3 C 61 % 1013.7 hPa 0.0 l/m 0.4 km/h (0 Bft) W 13.5 C 21.3 C
08.10.2004 16:00 20.5 C 61 % 1013.1 hPa 0.3 l/m 11.6 km/h (2 Bft) W-NW 12.7 C 20.5 C
08.10.2004 17:00 19.8 C 63 % 1013.2 hPa 0.0 l/m 3.6 km/h (1 Bft) W-NW 12.6 C 19.8 C
08.10.2004 18:00 18.4 C 74 % 1013.4 hPa 0.0 l/m 0.0 km/h (0 Bft) N 13.7 C 18.4 C
08.10.2004 19:00 17.5 C 82 % 1013.6 hPa 0.0 l/m 0.5 km/h (0 Bft) S-SO 14.4 C 17.5 C
08.10.2004 20:00 16.9 C 86 % 1014.4 hPa 0.0 l/m 0.0 km/h (0 Bft) N 14.5 C 16.9 C
08.10.2004 21:00 16.7 C 88 % 1013.7 hPa 0.0 l/m 0.0 km/h (0 Bft) N 14.6 C 16.7 C
08.10.2004 22:00 16.1 C 89 % 1013.8 hPa 0.0 l/m 5.0 km/h (1 Bft) W-NW 14.3 C 16.1 C
08.10.2004 23:00 14.1 C 95 % 1014.8 hPa 1.9 l/m 5.2 km/h (1 Bft) W 13.3 C 14.1 C
09.10.2004 00:00 13.5 C 99 % 1014.1 hPa 0.3 l/m 0.5 km/h (0 Bft) O-SO 13.4 C 13.5 C
09.10.2004 01:00 12.9 C 100 % 1015.4 hPa 0.6 l/m 1.8 km/h (1 Bft) NW 12.9 C 12.9 C
09.10.2004 02:00 13.0 C 100 % 1015.2 hPa 2.5 l/m 4.6 km/h (1 Bft) O-SO 13.0 C 13.0 C
09.10.2004 03:00 12.8 C 100 % 1014.3 hPa 0.0 l/m 0.3 km/h (0 Bft) NW 12.8 C 12.8 C
09.10.2004 04:00 13.0 C 100 % 1014.2 hPa 6.8 l/m 0.4 km/h (0 Bft) S 13.0 C 13.0 C
09.10.2004 05:00 13.1 C 100 % 1014.1 hPa 3.4 l/m 1.2 km/h (1 Bft) O-SO 13.1 C 13.1 C
09.10.2004 06:00 13.2 C 100 % 1013.7 hPa 0.0 l/m 0.0 km/h (0 Bft) N 13.2 C 13.2 C
09.10.2004 07:00 13.3 C 100 % 1013.6 hPa 0.0 l/m 0.4 km/h (0 Bft) NW 13.3 C 13.3 C
09.10.2004 08:00 12.2 C 100 % 1014.4 hPa 0.0 l/m 3.7 km/h (1 Bft) NW 12.2 C 12.2 C
09.10.2004 09:00 11.5 C 100 % 1015.4 hPa 0.0 l/m 2.0 km/h (1 Bft) N-NW 11.5 C 11.5 C
09.10.2004 10:00 12.1 C 100 % 1015.3 hPa 0.0 l/m 1.9 km/h (1 Bft) O 12.1 C 12.1 C
09.10.2004 11:00 12.7 C 95 % 1015.2 hPa 0.0 l/m 2.3 km/h (1 Bft) O-SO 11.9 C 12.7 C
09.10.2004 12:00 13.2 C 89 % 1015.1 hPa 0.0 l/m 1.3 km/h (1 Bft) N-NO 11.4 C 13.2 C
09.10.2004 13:00 13.5 C 86 % 1014.3 hPa 0.0 l/m 1.8 km/h (1 Bft) NO 11.2 C 13.5 C
09.10.2004 14:00 13.3 C 87 % 1014.1 hPa 0.0 l/m 1.7 km/h (1 Bft) O 11.1 C 13.3 C
09.10.2004 15:00 13.4 C 86 % 1014.1 hPa 0.0 l/m 5.5 km/h (1 Bft) O-SO 11.1 C 13.4 C
09.10.2004 16:00 12.9 C 88 % 1013.4 hPa 0.0 l/m 9.6 km/h (2 Bft) O-SO 11.0 C 12.9 C
09.10.2004 17:00 12.5 C 88 % 1013.3 hPa 0.0 l/m 1.8 km/h (1 Bft) O-NO 10.6 C 12.5 C
09.10.2004 18:00 12.2 C 90 % 1013.2 hPa 0.0 l/m 2.1 km/h (1 Bft) O 10.7 C 12.2 C
09.10.2004 19:00 12.0 C 90 % 1013.3 hPa 0.0 l/m 2.9 km/h (1 Bft) O-NO 10.4 C 12.0 C
09.10.2004 20:00 11.8 C 88 % 1013.3 hPa 0.0 l/m 2.4 km/h (1 Bft) N-NO 9.8 C 11.8 C
09.10.2004 21:00 11.3 C 91 % 1013.2 hPa 0.0 l/m 1.5 km/h (1 Bft) O 9.9 C 11.3 C
09.10.2004 22:00 11.3 C 92 % 1012.3 hPa 0.0 l/m 0.6 km/h (0 Bft) O-NO 10.1 C 11.3 C
09.10.2004 23:00 11.2 C 95 % 1012.3 hPa 0.3 l/m 1.3 km/h (1 Bft) O-SO 10.4 C 11.2 C
10.10.2004 00:00 11.0 C 99 % 1012.9 hPa 5.3 l/m 6.2 km/h (2 Bft) NW 10.8 C 11.0 C
10.10.2004 01:00 10.8 C 100 % 1012.6 hPa 1.9 l/m 6.3 km/h (2 Bft) O-SO 10.8 C 10.8 C
10.10.2004 02:00 10.7 C 100 % 1012.5 hPa 0.0 l/m 5.4 km/h (1 Bft) O-SO 10.7 C 10.7 C
10.10.2004 03:00 10.6 C 100 % 1012.4 hPa 0.0 l/m 0.0 km/h (0 Bft) N 10.6 C 10.6 C
10.10.2004 04:00 10.6 C 100 % 1012.4 hPa 0.0 l/m 0.0 km/h (0 Bft) N 10.6 C 10.6 C
10.10.2004 05:00 10.3 C 100 % 1011.8 hPa 0.0 l/m 1.0 km/h (0 Bft) S-SO 10.3 C 10.2 C
10.10.2004 06:00 10.2 C 100 % 1011.0 hPa 0.0 l/m 1.9 km/h (1 Bft) O 10.2 C 10.2 C
10.10.2004 07:00 10.4 C 100 % 1010.6 hPa 0.0 l/m 1.6 km/h (1 Bft) O 10.4 C 10.4 C
10.10.2004 08:00 10.8 C 100 % 1010.3 hPa 0.0 l/m 3.1 km/h (1 Bft) O-SO 10.8 C 10.8 C
10.10.2004 09:00 10.9 C 100 % 1010.3 hPa 0.0 l/m 4.4 km/h (1 Bft) O-SO 10.9 C 10.9 C
10.10.2004 10:00 11.3 C 99 % 1010.2 hPa 0.0 l/m 1.7 km/h (1 Bft) O 11.1 C 11.3 C
10.10.2004 11:00 11.4 C 98 % 1010.7 hPa 0.0 l/m 1.1 km/h (0 Bft) O 11.1 C 11.4 C
10.10.2004 12:00 11.9 C 96 % 1011.2 hPa 0.0 l/m 2.5 km/h (1 Bft) O-SO 11.4 C 11.9 C
10.10.2004 13:00 11.7 C 93 % 1011.2 hPa 2.2 l/m 7.4 km/h (2 Bft) O-SO 10.6 C 11.7 C
10.10.2004 14:00 10.7 C 96 % 1011.3 hPa 5.3 l/m 5.3 km/h (1 Bft) O-SO 10.1 C 10.7 C
10.10.2004 15:00 10.4 C 98 % 1011.8 hPa 2.2 l/m 4.7 km/h (1 Bft) O-SO 10.1 C 10.4 C
10.10.2004 16:00 10.1 C 99 % 1012.4 hPa 5.0 l/m 1.6 km/h (1 Bft) O-SO 10.0 C 10.0 C
10.10.2004 17:00 10.1 C 100 % 1012.4 hPa 1.9 l/m 1.9 km/h (1 Bft) O-SO 10.1 C 10.1 C
10.10.2004 18:00 9.9 C 100 % 1012.5 hPa 0.0 l/m 3.3 km/h (1 Bft) O 9.9 C 9.6 C
10.10.2004 19:00 9.6 C 99 % 1012.5 hPa 0.0 l/m 2.0 km/h (1 Bft) NO 9.4 C 9.4 C
10.10.2004 20:00 9.4 C 100 % 1013.3 hPa 2.8 l/m 1.3 km/h (1 Bft) NO 9.4 C 9.2 C
10.10.2004 21:00 9.2 C 100 % 1013.6 hPa 0.0 l/m 2.0 km/h (1 Bft) NO 9.2 C 9.0 C
10.10.2004 22:00 9.0 C 100 % 1013.8 hPa 0.3 l/m 1.4 km/h (1 Bft) O-NO 9.0 C 8.9 C
10.10.2004 23:00 8.8 C 100 % 1014.7 hPa 0.0 l/m 3.0 km/h (1 Bft) O-NO 8.8 C 8.5 C
Min-Datum _ 04.10.04 05.10.04 10.10.04 - 04.10.04 - 04.10.04 10.10.04
_ Min-Zeit 03:47 16:26 10:41 - 00:05 - 03:47 23:26
Minimum _ 8.1 C 39 % 1010.2 hPa - 0.0 km/h (0 Bft) - 8.1 C 7.0 C
Max-Datum _ 05.10.04 04.10.04 04.10.04 09.10.04 06.10.04 - 06.10.04 05.10.04
_ Max-Zeit 16:23 00:44 02:38 04:47 14:20 - 10:26 16:23
Maximum _ 25.1 C 100 % 1023.1 hPa 6.8 l/m 33.3 km/h
W-NW (5 Bft)
- 16.0 C 25.1 C
Durchschnitt _ 13.9 C 90 % 1016.8 hPa #46.5 l/m 1.8 km/h (1 Bft) O-SO 11.9 C 13.9 C

Durchschnitt Minimum Temp.13.3 C
Durchschnitt Maximum Temp.14.4 C
© Kaiko 2004